createdAt,value
2022-11-02T00:02:39.603Z,99.90
2022-11-02T00:07:37.540Z,99.90
2022-11-02T00:12:35.463Z,99.90
2022-11-02T00:17:35.713Z,99.90
2022-11-02T00:22:39.931Z,99.90
2022-11-02T00:27:37.946Z,99.90
2022-11-02T00:32:40.502Z,99.90
2022-11-02T00:37:38.418Z,99.90
2022-11-02T00:42:36.361Z,99.90
2022-11-02T00:47:34.713Z,99.90
2022-11-02T00:52:34.081Z,99.90
2022-11-02T00:57:32.207Z,99.90
2022-11-02T01:02:30.380Z,99.90
2022-11-02T01:07:30.624Z,99.90
2022-11-02T01:12:30.070Z,99.90
2022-11-02T01:17:27.980Z,99.90
2022-11-02T01:22:25.949Z,99.90
2022-11-02T01:27:26.274Z,99.90
2022-11-02T01:32:25.574Z,99.90
2022-11-02T01:37:23.633Z,99.90
2022-11-02T01:42:23.117Z,99.90
2022-11-02T01:47:27.808Z,99.90
2022-11-02T01:52:30.158Z,99.90
2022-11-02T01:57:29.659Z,99.90
2022-11-02T02:02:29.675Z,99.90
2022-11-02T02:07:29.641Z,99.90
2022-11-02T02:12:29.857Z,99.90
2022-11-02T02:17:37.076Z,99.90
2022-11-02T02:23:25.167Z,99.90
2022-11-02T02:28:34.420Z,99.90
2022-11-02T02:33:35.313Z,99.90
2022-11-02T02:38:36.291Z,99.90
2022-11-02T02:43:44.249Z,99.90
2022-11-02T02:48:46.545Z,99.90
2022-11-02T02:53:48.611Z,99.90
2022-11-02T02:58:57.788Z,99.90
2022-11-02T03:03:55.985Z,99.90
2022-11-02T03:09:06.903Z,99.90
2022-11-02T03:14:18.835Z,99.90
2022-11-02T03:19:24.079Z,99.90
2022-11-02T03:24:27.847Z,99.90
2022-11-02T03:29:35.080Z,99.90
2022-11-02T03:34:40.147Z,99.90
2022-11-02T03:39:43.060Z,99.90
2022-11-02T03:44:44.992Z,99.90
2022-11-02T03:49:45.308Z,99.90
2022-11-02T03:54:49.736Z,99.90
2022-11-02T03:59:50.756Z,99.90
2022-11-02T04:04:50.453Z,99.90
2022-11-02T04:09:50.148Z,99.90
2022-11-02T04:14:50.229Z,99.90
2022-11-02T04:19:50.342Z,99.90
2022-11-02T04:25:06.989Z,99.90
2022-11-02T04:30:08.527Z,99.90
2022-11-02T04:35:09.229Z,99.90
2022-11-02T04:40:08.234Z,99.90
2022-11-02T04:45:09.039Z,99.90
2022-11-02T04:50:08.023Z,99.90
2022-11-02T04:55:07.069Z,99.90
2022-11-02T05:00:10.195Z,99.90
2022-11-02T05:05:12.177Z,99.90
2022-11-02T05:10:11.371Z,99.90
2022-11-02T05:15:11.745Z,99.90
2022-11-02T05:20:10.864Z,99.90
2022-11-02T05:25:09.711Z,99.90
2022-11-02T05:30:09.287Z,99.90
2022-11-02T05:35:09.888Z,99.90
2022-11-02T05:40:10.046Z,99.90
2022-11-02T05:45:09.247Z,99.90
2022-11-02T05:50:10.941Z,99.90
2022-11-02T05:55:09.887Z,99.90
2022-11-02T06:00:09.605Z,99.90
2022-11-02T06:05:11.805Z,99.90
2022-11-02T06:10:10.064Z,99.90
2022-11-02T06:15:09.184Z,99.90
2022-11-02T06:20:09.069Z,99.90
2022-11-02T06:25:15.017Z,99.90
2022-11-02T06:30:13.402Z,99.90
2022-11-02T06:35:12.221Z,99.90
2022-11-02T06:40:13.428Z,99.90
2022-11-02T06:45:13.148Z,99.90
2022-11-02T06:50:11.300Z,99.90
2022-11-02T06:55:11.363Z,99.90
2022-11-02T07:00:14.528Z,99.90
2022-11-02T07:05:15.182Z,99.90
2022-11-02T07:10:14.476Z,99.90
2022-11-02T07:15:12.488Z,99.90
2022-11-02T07:20:11.448Z,99.90
2022-11-02T07:25:11.000Z,99.90
2022-11-02T07:30:10.890Z,99.90
2022-11-02T07:35:12.495Z,99.90
2022-11-02T07:40:13.872Z,99.90
2022-11-02T07:45:13.552Z,99.90
2022-11-02T07:50:11.633Z,99.90
2022-11-02T07:55:09.950Z,99.90
2022-11-02T08:00:09.399Z,99.90
2022-11-02T08:05:11.016Z,99.90
2022-11-02T08:10:09.505Z,99.90
2022-11-02T08:15:08.468Z,99.90
2022-11-02T08:20:07.743Z,99.90
2022-11-02T08:30:34.339Z,99.90
2022-11-02T08:35:37.489Z,99.90
2022-11-02T08:40:39.277Z,99.90
2022-11-02T08:46:12.735Z,99.90
2022-11-02T08:50:57.544Z,99.90
2022-11-02T08:55:58.250Z,99.90
2022-11-02T09:00:56.866Z,99.90
2022-11-02T09:05:58.485Z,99.90
2022-11-02T09:11:00.715Z,99.90
2022-11-02T09:16:00.278Z,99.90
2022-11-02T09:21:02.043Z,99.90
2022-11-02T09:26:01.492Z,99.90
2022-11-02T09:31:03.863Z,99.90
2022-11-02T09:36:05.695Z,99.90
2022-11-02T09:41:12.960Z,99.90
2022-11-02T09:46:17.690Z,99.90
2022-11-02T09:51:18.745Z,99.90
2022-11-02T09:56:20.505Z,99.90
2022-11-02T10:01:29.992Z,99.90
2022-11-02T10:06:30.164Z,99.90
2022-11-02T10:11:43.866Z,98.90
2022-11-02T10:16:50.577Z,97.60
2022-11-02T10:21:54.617Z,96.50
2022-11-02T10:26:57.842Z,92.70
2022-11-02T10:31:58.302Z,92.80
2022-11-02T10:37:13.789Z,94.00
2022-11-02T10:42:31.432Z,91.30
2022-11-02T10:47:34.437Z,90.10
2022-11-02T10:52:41.532Z,87.50
2022-11-02T10:57:41.348Z,87.10
2022-11-02T11:02:39.307Z,84.70
2022-11-02T11:07:38.028Z,79.40
2022-11-02T11:12:42.235Z,79.40
2022-11-02T11:23:19.030Z,81.70
2022-11-02T11:28:26.295Z,91.50
2022-11-02T11:33:24.237Z,97.80
2022-11-02T11:38:26.177Z,99.90
2022-11-02T11:43:27.943Z,99.90
2022-11-02T11:48:34.805Z,99.90
2022-11-02T11:53:33.085Z,99.90
2022-11-02T11:58:33.771Z,99.90
2022-11-02T12:03:31.701Z,99.90
2022-11-02T12:08:44.621Z,99.90
2022-11-02T12:14:10.558Z,99.90
2022-11-02T12:19:22.145Z,99.90
2022-11-02T12:24:52.853Z,99.90
2022-11-02T12:30:22.763Z,99.90
2022-11-02T12:35:32.354Z,99.90
2022-11-02T12:40:43.269Z,99.90
2022-11-02T12:45:50.784Z,99.90
2022-11-02T12:50:59.270Z,99.90
2022-11-02T12:56:02.674Z,99.90
2022-11-02T13:01:13.505Z,99.90
2022-11-02T13:06:16.616Z,99.90
2022-11-02T13:11:23.044Z,99.90
2022-11-02T13:16:31.763Z,99.90
2022-11-02T13:21:43.684Z,99.90
2022-11-02T13:26:44.002Z,99.90
2022-11-02T13:31:48.636Z,99.90
2022-11-02T13:36:47.232Z,99.90
2022-11-02T13:42:20.914Z,99.90
2022-11-02T13:47:42.820Z,99.90
2022-11-02T13:52:44.520Z,99.90
2022-11-02T13:57:44.506Z,99.90
2022-11-02T14:02:44.670Z,99.90
2022-11-02T14:07:42.861Z,99.90
2022-11-02T14:12:45.493Z,99.90
2022-11-02T14:23:39.601Z,99.90
2022-11-02T14:28:44.950Z,99.90
2022-11-02T14:34:02.301Z,99.90
2022-11-02T14:39:09.762Z,99.90
2022-11-02T14:44:35.185Z,99.90
2022-11-02T14:49:35.992Z,99.90
2022-11-02T14:54:47.044Z,99.90
2022-11-02T14:59:50.978Z,99.90
2022-11-02T15:04:51.453Z,99.90
2022-11-02T15:09:57.733Z,99.90
2022-11-02T15:15:06.664Z,99.90
2022-11-02T15:20:30.809Z,99.90
2022-11-02T15:25:32.756Z,99.90
2022-11-02T15:30:41.642Z,99.90
2022-11-02T15:35:39.967Z,99.90
2022-11-02T15:40:49.158Z,99.90
2022-11-02T15:46:09.215Z,99.90
2022-11-02T15:51:17.125Z,99.90
2022-11-02T15:56:32.888Z,99.90
2022-11-02T16:01:32.891Z,99.90
2022-11-02T16:06:33.254Z,99.90
2022-11-02T16:11:31.939Z,99.90
2022-11-02T16:16:35.548Z,99.90
2022-11-02T16:21:35.296Z,99.90
2022-11-02T16:26:33.753Z,99.90
2022-11-02T16:31:31.935Z,99.90
2022-11-02T16:36:32.445Z,99.90
2022-11-02T16:41:33.695Z,99.90
2022-11-02T16:46:42.659Z,99.90
2022-11-02T16:51:41.176Z,99.90
2022-11-02T16:56:40.508Z,99.90
2022-11-02T17:01:41.498Z,99.90
2022-11-02T17:06:41.499Z,99.90
2022-11-02T17:11:44.607Z,99.90
2022-11-02T17:16:58.661Z,99.90
2022-11-02T17:22:11.641Z,99.90
2022-11-02T17:27:25.777Z,99.90
2022-11-02T17:32:23.867Z,99.90
2022-11-02T17:37:26.667Z,99.90
2022-11-02T17:42:43.253Z,99.90
2022-11-02T17:47:41.133Z,99.90
2022-11-02T17:52:39.527Z,99.90
2022-11-02T17:57:43.352Z,99.90
2022-11-02T18:02:41.851Z,99.90
2022-11-02T18:07:39.771Z,99.90
2022-11-02T18:12:39.098Z,99.90
2022-11-02T18:17:37.027Z,99.90
2022-11-02T18:22:34.993Z,99.90
2022-11-02T18:27:32.912Z,99.90
2022-11-02T18:32:32.439Z,99.90
2022-11-02T18:37:30.489Z,99.90
2022-11-02T18:42:29.306Z,99.90
2022-11-02T18:47:27.302Z,99.90
2022-11-02T18:52:31.023Z,99.90
2022-11-02T18:57:30.656Z,99.90
2022-11-02T19:02:29.489Z,99.90
2022-11-02T19:07:46.418Z,99.90
2022-11-02T19:12:44.540Z,99.90
2022-11-02T19:17:42.502Z,99.90
2022-11-02T19:22:41.738Z,99.90
2022-11-02T19:27:39.624Z,99.90
2022-11-02T19:32:40.739Z,99.90
2022-11-02T19:37:39.183Z,99.90
2022-11-02T19:42:39.895Z,99.90
2022-11-02T19:47:38.292Z,99.90
2022-11-02T19:52:36.466Z,99.90
2022-11-02T19:57:34.540Z,99.90
2022-11-02T20:02:33.910Z,99.90
2022-11-02T20:07:31.871Z,99.90
2022-11-02T20:12:29.903Z,99.90
2022-11-02T20:17:38.040Z,99.90
2022-11-02T20:22:46.214Z,99.90
2022-11-02T20:27:45.076Z,99.90
2022-11-02T20:32:43.615Z,99.90
2022-11-02T20:37:41.560Z,99.90
2022-11-02T20:42:40.829Z,99.90
2022-11-02T20:47:39.270Z,99.90
2022-11-02T20:52:38.284Z,99.90
2022-11-02T20:57:37.723Z,99.90
2022-11-02T21:02:37.061Z,99.90
2022-11-02T21:07:35.015Z,99.90
2022-11-02T21:12:51.838Z,99.90
2022-11-02T21:17:51.183Z,99.90
2022-11-02T21:22:50.822Z,99.90
2022-11-02T21:27:50.335Z,99.90
2022-11-02T21:32:52.633Z,99.90
2022-11-02T21:37:50.992Z,99.90
2022-11-02T21:42:50.320Z,99.90
2022-11-02T21:47:51.958Z,99.90
2022-11-02T21:52:49.907Z,99.90
2022-11-02T21:57:47.927Z,99.90
2022-11-02T22:02:45.881Z,99.90
2022-11-02T22:07:59.098Z,99.90
2022-11-02T22:13:14.565Z,99.90
2022-11-02T22:18:12.498Z,99.90
2022-11-02T22:23:11.742Z,99.90
2022-11-02T22:28:09.671Z,99.90
2022-11-02T22:33:09.104Z,99.90
2022-11-02T22:38:24.374Z,99.90
2022-11-02T22:43:23.605Z,99.90
2022-11-02T22:48:21.524Z,99.90
2022-11-02T22:53:19.405Z,99.90
2022-11-02T22:58:17.309Z,99.90
2022-11-02T23:03:16.560Z,99.90
2022-11-02T23:08:14.856Z,99.90
2022-11-02T23:13:15.952Z,99.90
2022-11-02T23:18:17.737Z,99.90
2022-11-02T23:23:33.289Z,99.90
2022-11-02T23:28:56.838Z,99.90
2022-11-02T23:33:56.942Z,99.90
2022-11-02T23:39:12.407Z,99.90
2022-11-02T23:44:14.411Z,99.90
2022-11-02T23:49:14.447Z,99.90
2022-11-02T23:54:31.693Z,99.90
2022-11-02T23:59:29.674Z,99.90
